Time;durP1;ratioP1;P1;durP2;ratioP2;P2;SDS_P1;SDS_P2;PMS_P1;PMS_P2;Temp;Humidity;BMP_temperature;BMP_pressure;BME280_temperature;BME280_humidity;BME280_pressure;Samples;Min_cycle;Max_cycle;Signal;HPM_P1;HPM_P2
2022/03/11 00:00:29;;;;;;;12.45;6.75;;;;;;;-0.65;60.30;101121.00;5008864;28;20033;-21
2022/03/11 00:02:55;;;;;;;16.15;6.38;;;;;;;-0.41;60.40;101119.06;5008341;28;20038;-20
2022/03/11 00:05:20;;;;;;;9.52;5.47;;;;;;;-0.60;60.84;101113.59;4990812;28;20034;-21
2022/03/11 00:07:46;;;;;;;11.68;6.13;;;;;;;-0.70;61.22;101110.03;5008397;28;20457;-21
2022/03/11 00:10:11;;;;;;;9.75;5.82;;;;;;;-0.74;61.21;101111.22;4990986;28;20037;-21
2022/03/11 00:12:37;;;;;;;13.73;6.43;;;;;;;-0.76;61.05;101076.47;4990625;28;20057;-21
2022/03/11 00:15:05;;;;;;;11.68;5.72;;;;;;;-0.35;60.91;101077.59;4990363;28;20042;-21
2022/03/11 00:17:30;;;;;;;9.75;5.47;;;;;;;-0.66;60.53;101090.50;4990746;28;20049;-20
2022/03/11 00:19:56;;;;;;;9.38;5.53;;;;;;;-0.75;61.08;101084.19;4990507;28;20430;-21
2022/03/11 00:22:21;;;;;;;10.50;5.97;;;;;;;-0.76;60.47;101092.19;4990174;28;20034;-21
2022/03/11 00:24:47;;;;;;;10.48;5.75;;;;;;;-0.49;59.54;101113.59;4990566;28;20712;-22
2022/03/11 00:27:12;;;;;;;10.18;5.18;;;;;;;-0.72;60.88;101118.00;4990272;28;20033;-21
2022/03/11 00:29:37;;;;;;;10.32;6.68;;;;;;;-0.83;60.97;101118.84;4990463;28;20029;-20
2022/03/11 00:32:03;;;;;;;43.95;17.73;;;;;;;-0.94;61.23;101125.84;5008157;28;20458;-20
2022/03/11 00:34:29;;;;;;;28.42;12.05;;;;;;;-0.90;60.48;101107.19;4990385;28;20022;-21
2022/03/11 00:36:55;;;;;;;133.93;45.08;;;;;;;-1.30;61.82;101105.00;4989668;28;20240;-21
2022/03/11 00:39:20;;;;;;;53.55;21.85;;;;;;;-1.08;61.74;101124.31;5007909;28;20026;-21
2022/03/11 00:41:45;;;;;;;39.58;18.30;;;;;;;-1.03;61.79;101112.53;5008333;28;20041;-21
2022/03/11 00:44:11;;;;;;;19.40;8.93;;;;;;;-0.52;60.25;101121.69;4990150;28;20053;-20
2022/03/11 00:46:36;;;;;;;12.98;6.75;;;;;;;-0.65;59.96;101115.75;4990342;28;20088;-21
2022/03/11 00:49:02;;;;;;;11.50;6.38;;;;;;;-0.95;61.76;101111.09;5007461;28;20030;-21
2022/03/11 00:51:27;;;;;;;9.52;4.97;;;;;;;-0.57;61.49;101102.03;4974163;28;20037;-21
2022/03/11 00:53:53;;;;;;;9.07;5.25;;;;;;;-0.34;60.87;101115.97;5006448;28;20034;-20
2022/03/11 00:56:19;;;;;;;18.60;7.22;;;;;;;-0.30;60.42;101106.91;4974078;28;20038;-22
2022/03/11 00:58:46;;;;;;;13.50;6.13;;;;;;;-0.25;60.64;101117.81;5007903;28;20033;-21
2022/03/11 01:01:11;;;;;;;12.13;5.78;;;;;;;-0.25;60.16;101112.59;5008043;28;20034;-21
2022/03/11 01:03:37;;;;;;;11.95;5.97;;;;;;;-0.30;60.70;101112.13;4990669;28;20053;-22
2022/03/11 01:06:02;;;;;;;10.90;6.30;;;;;;;-0.42;60.72;101111.31;5007635;28;20426;-21
2022/03/11 01:08:28;;;;;;;14.85;6.57;;;;;;;-0.88;62.43;101107.91;4990597;28;20026;-21
2022/03/11 01:10:53;;;;;;;9.15;5.38;;;;;;;-1.20;62.28;101114.78;4973717;28;20144;-21
2022/03/11 01:13:19;;;;;;;11.57;5.80;;;;;;;-1.26;62.41;101121.31;4989882;28;20061;-21
2022/03/11 01:15:44;;;;;;;8.40;4.75;;;;;;;-1.13;61.81;101121.19;4989969;28;20045;-21
2022/03/11 01:18:09;;;;;;;8.75;4.80;;;;;;;-1.51;62.40;101124.91;5007553;28;20037;-21
2022/03/11 01:20:35;;;;;;;11.05;5.40;;;;;;;-1.51;63.07;101120.53;4989748;28;20108;-20
2022/03/11 01:23:00;;;;;;;10.13;5.75;;;;;;;-1.25;62.37;101125.56;4989794;28;20049;-20
2022/03/11 01:25:26;;;;;;;9.88;5.78;;;;;;;-1.73;63.36;101118.69;4990065;28;20486;-20
2022/03/11 01:27:53;;;;;;;12.02;5.93;;;;;;;-1.69;64.22;101119.28;4989909;28;20054;-21
2022/03/11 01:30:18;;;;;;;11.30;6.20;;;;;;;-1.94;64.65;101107.16;5006265;28;20033;-21
2022/03/11 01:32:44;;;;;;;12.32;6.88;;;;;;;-1.77;65.19;101121.63;5011397;28;20034;-21
2022/03/11 01:35:11;;;;;;;11.10;5.82;;;;;;;-2.15;65.36;101092.09;4993394;28;20033;-20
2022/03/11 01:37:36;;;;;;;11.32;5.85;;;;;;;-2.14;65.54;101101.63;4977523;28;20041;-21
2022/03/11 01:40:03;;;;;;;11.25;6.22;;;;;;;-2.11;65.75;101109.22;5011427;28;20037;-20
2022/03/11 01:42:28;;;;;;;11.48;6.07;;;;;;;-2.27;66.17;101112.13;4993723;28;20034;-21
2022/03/11 01:44:54;;;;;;;11.02;5.18;;;;;;;-2.43;66.15;101104.53;5011176;28;20465;-21
2022/03/11 01:47:19;;;;;;;12.93;5.75;;;;;;;-2.17;65.86;101107.06;5011234;28;20044;-21
2022/03/11 01:49:45;;;;;;;12.48;6.60;;;;;;;-1.98;65.74;101108.34;4993284;28;20037;-21
2022/03/11 01:52:14;;;;;;;10.88;6.20;;;;;;;-2.01;63.86;101093.72;5011491;28;20073;-21
2022/03/11 01:54:42;;;;;;;10.05;5.88;;;;;;;-1.84;63.51;101084.63;4977068;28;20121;-21
2022/03/11 01:57:08;;;;;;;12.57;6.70;;;;;;;-1.39;62.16;101108.28;4993093;28;20057;-20
2022/03/11 01:59:34;;;;;;;13.93;7.13;;;;;;;-1.12;62.29;101115.03;4993219;28;20077;-20
2022/03/11 02:01:59;;;;;;;12.60;6.40;;;;;;;-1.23;62.43;101116.69;5009410;28;20037;-21
2022/03/11 02:04:24;;;;;;;11.18;6.50;;;;;;;-1.35;62.45;101119.38;5010418;28;20488;-21
2022/03/11 02:06:50;;;;;;;10.35;6.00;;;;;;;-1.52;63.23;101120.66;5010793;28;20029;-20
2022/03/11 02:09:15;;;;;;;10.32;5.60;;;;;;;-1.57;63.71;101122.75;5010744;28;20046;-21
2022/03/11 02:11:41;;;;;;;11.88;6.20;;;;;;;-1.56;63.53;101125.25;4977003;28;20069;-20
2022/03/11 02:14:07;;;;;;;10.68;6.32;;;;;;;-1.45;63.39;101127.06;4992969;28;20419;-21
2022/03/11 02:16:33;;;;;;;9.73;5.57;;;;;;;-1.25;62.69;101122.97;5010390;28;20069;-21
2022/03/11 02:18:59;;;;;;;11.93;5.75;;;;;;;-1.36;62.66;101126.41;4976380;28;20048;-30
2022/03/11 02:21:26;;;;;;;12.25;6.30;;;;;;;-1.53;62.70;101127.66;4976695;28;20034;-21
2022/03/11 02:23:56;;;;;;;13.50;6.75;;;;;;;-1.66;63.06;101119.88;5010560;28;20506;-21
2022/03/11 02:26:23;;;;;;;12.85;7.22;;;;;;;-1.54;61.91;101128.59;4977169;28;20030;-20
2022/03/11 02:28:50;;;;;;;11.00;6.50;;;;;;;-1.63;61.87;101129.28;4992620;28;20088;-21
2022/03/11 02:31:16;;;;;;;11.95;6.30;;;;;;;-1.40;61.62;101127.56;4976441;28;20871;-22
2022/03/11 02:33:41;;;;;;;10.80;6.00;;;;;;;-1.56;60.05;101119.22;4992649;28;20030;-21
2022/03/11 02:36:07;;;;;;;12.35;5.88;;;;;;;-1.79;61.45;101129.59;4976505;28;20037;-21
2022/03/11 02:38:32;;;;;;;11.70;5.63;;;;;;;-1.69;60.77;101127.13;4992423;28;20060;-20
2022/03/11 02:40:58;;;;;;;12.60;6.57;;;;;;;-1.45;59.11;101137.53;5009855;28;20704;-21
2022/03/11 02:43:24;;;;;;;9.95;5.38;;;;;;;-1.31;58.12;101134.75;4991094;28;20145;-21
2022/03/11 02:45:49;;;;;;;10.00;5.75;;;;;;;-1.43;56.80;101125.16;5008354;28;20044;-21
2022/03/11 02:48:15;;;;;;;11.35;5.90;;;;;;;-1.05;56.24;101137.97;4992445;28;20034;-21
2022/03/11 02:50:40;;;;;;;11.93;6.03;;;;;;;-1.36;55.53;101138.66;5009880;28;20072;-21
2022/03/11 02:53:06;;;;;;;12.85;7.72;;;;;;;-1.29;55.68;101142.47;4992068;28;20464;-21
2022/03/11 02:55:31;;;;;;;19.13;9.18;;;;;;;-1.45;55.54;101137.53;4975900;28;20041;-20
2022/03/11 02:57:57;;;;;;;11.43;6.70;;;;;;;-0.87;55.28;101158.50;4992002;28;20025;-21
2022/03/11 03:00:22;;;;;;;12.68;5.88;;;;;;;-0.82;54.67;101133.63;5009978;28;20033;-21
2022/03/11 03:02:48;;;;;;;11.52;5.80;;;;;;;-0.76;51.71;101160.28;4992352;28;20744;-21
2022/03/11 03:05:13;;;;;;;9.20;4.72;;;;;;;-0.83;52.03;101160.75;4976100;28;20040;-20
2022/03/11 03:07:39;;;;;;;9.35;5.13;;;;;;;-0.70;53.13;101160.63;4976256;28;20034;-20
2022/03/11 03:10:06;;;;;;;9.32;4.82;;;;;;;-0.57;51.25;101160.53;4976140;28;20038;-20
2022/03/11 03:12:31;;;;;;;10.77;4.97;;;;;;;-0.68;51.57;101145.63;5009718;28;20054;-21
2022/03/11 03:14:57;;;;;;;13.23;5.60;;;;;;;-0.63;51.96;101163.63;4975658;28;20425;-21
2022/03/11 03:17:22;;;;;;;9.60;4.75;;;;;;;-0.97;52.93;101160.97;5009113;28;20049;-21
2022/03/11 03:19:48;;;;;;;12.30;5.97;;;;;;;-1.26;53.20;101165.81;4975689;28;20033;-21
2022/03/11 03:22:14;;;;;;;16.05;5.60;;;;;;;-1.40;54.50;101156.34;4992017;28;20033;-20
2022/03/11 03:24:40;;;;;;;13.07;5.40;;;;;;;-1.27;53.74;101172.81;5009442;28;20041;-22
2022/03/11 03:27:05;;;;;;;12.63;5.28;;;;;;;-1.00;54.06;101163.84;4975214;28;20060;-20
2022/03/11 03:29:31;;;;;;;12.25;5.03;;;;;;;-1.43;54.76;101146.09;4975595;28;20118;-21
2022/03/11 03:31:59;;;;;;;11.23;5.20;;;;;;;-1.44;53.63;101128.75;4991534;28;20030;-21
2022/03/11 03:34:29;;;;;;;16.33;7.20;;;;;;;-1.11;53.47;101166.41;4976177;28;20048;-21
2022/03/11 03:36:56;;;;;;;15.10;8.02;;;;;;;-0.96;51.62;101141.72;4991732;28;20041;-20
2022/03/11 03:39:22;;;;;;;15.27;7.82;;;;;;;-1.14;52.76;101171.91;4975541;28;20037;-21
2022/03/11 03:41:47;;;;;;;12.27;7.72;;;;;;;-1.09;53.21;101164.53;4991402;28;20033;-20
2022/03/11 03:44:13;;;;;;;14.38;7.30;;;;;;;-1.40;54.01;101164.22;5008626;28;20642;-21
2022/03/11 03:46:38;;;;;;;17.00;8.55;;;;;;;-1.34;53.75;101168.97;4975315;28;20045;-21
2022/03/11 03:49:03;;;;;;;22.75;12.15;;;;;;;-1.10;54.04;101157.63;5008404;28;20037;-22
2022/03/11 03:51:29;;;;;;;104.50;44.47;;;;;;;-1.35;53.49;101175.16;4991361;28;20426;-21
2022/03/11 03:53:54;;;;;;;155.60;65.45;;;;;;;-1.94;56.02;101156.84;4974673;28;20096;-20
2022/03/11 03:56:20;;;;;;;109.88;48.97;;;;;;;-1.63;55.64;101158.06;4991107;28;20038;-21
2022/03/11 03:58:45;;;;;;;33.53;14.85;;;;;;;-1.54;53.22;101153.94;4990961;28;20045;-21
2022/03/11 04:01:11;;;;;;;227.80;89.00;;;;;;;-1.90;55.81;101132.13;5008177;28;20525;-21
2022/03/11 04:03:36;;;;;;;25.00;14.75;;;;;;;-1.71;55.33;101148.16;4974845;28;20033;-20
2022/03/11 04:06:02;;;;;;;14.65;7.65;;;;;;;-1.57;53.50;101160.22;4991041;28;20822;-21
2022/03/11 04:08:27;;;;;;;13.82;7.90;;;;;;;-1.68;55.16;101163.63;4990956;28;20033;-20
2022/03/11 04:10:53;;;;;;;13.25;7.28;;;;;;;-1.74;54.05;101158.00;4990529;28;20585;-20
2022/03/11 04:13:18;;;;;;;12.93;7.68;;;;;;;-1.85;54.27;101161.41;4990657;28;20049;-21
2022/03/11 04:15:44;;;;;;;12.73;7.95;;;;;;;-1.66;54.18;101156.50;4990530;28;20041;-20
2022/03/11 04:18:09;;;;;;;14.43;7.90;;;;;;;-1.00;53.19;101166.47;4990901;28;20084;-21
2022/03/11 04:20:35;;;;;;;14.05;7.55;;;;;;;-0.90;52.53;101179.66;4991019;28;20426;-21
2022/03/11 04:23:00;;;;;;;20.13;11.27;;;;;;;-1.17;53.34;101179.97;5007966;28;20030;-21
2022/03/11 04:25:26;;;;;;;11.32;7.22;;;;;;;-1.11;52.70;101185.56;5007745;28;20505;-22
2022/03/11 04:27:51;;;;;;;13.60;8.48;;;;;;;-0.86;51.64;101184.56;5006918;28;20030;-21
2022/03/11 04:30:17;;;;;;;11.05;7.22;;;;;;;-1.00;52.14;101179.56;5008061;28;20030;-20
2022/03/11 04:32:42;;;;;;;20.17;10.23;;;;;;;-1.34;52.74;101176.84;5007551;28;20044;-21
2022/03/11 04:35:08;;;;;;;23.13;10.52;;;;;;;-1.51;53.78;101185.09;5008119;28;20037;-21
2022/03/11 04:37:34;;;;;;;21.33;9.23;;;;;;;-1.49;53.74;101181.44;5008126;28;20099;-21
2022/03/11 04:39:59;;;;;;;33.58;15.25;;;;;;;-1.38;53.55;101174.56;4990324;28;20029;-21
2022/03/11 04:42:25;;;;;;;64.22;28.67;;;;;;;-1.22;53.27;101185.56;4990396;28;20032;-21
2022/03/11 04:44:50;;;;;;;44.78;21.67;;;;;;;-1.01;52.06;101188.34;4989820;28;20051;-20
2022/03/11 04:47:16;;;;;;;19.27;11.82;;;;;;;-1.07;51.99;101178.31;5007984;28;20053;-21
2022/03/11 04:49:41;;;;;;;13.98;8.23;;;;;;;-1.63;50.67;101190.28;5008362;28;20041;-21
2022/03/11 04:52:07;;;;;;;18.05;10.75;;;;;;;-1.36;51.29;101188.38;4990383;28;20084;-21
2022/03/11 04:54:33;;;;;;;22.20;12.55;;;;;;;-0.99;51.80;101186.44;5007951;28;20033;-21
2022/03/11 04:56:58;;;;;;;20.45;12.10;;;;;;;-1.03;50.72;101169.28;5007671;28;20105;-21
2022/03/11 04:59:23;;;;;;;11.90;6.25;;;;;;;-1.11;48.27;101192.59;4990111;28;20033;-22
2022/03/11 05:01:50;;;;;;;10.98;5.40;;;;;;;-1.59;46.93;101171.72;4974227;28;20034;-21
2022/03/11 05:04:15;;;;;;;10.02;5.07;;;;;;;-1.91;47.93;101188.00;4990334;28;20104;-20
2022/03/11 05:06:41;;;;;;;10.38;5.70;;;;;;;-1.51;47.73;101190.31;4992690;28;20041;-30
2022/03/11 05:09:07;;;;;;;9.18;4.30;;;;;;;-1.91;46.99;101201.06;5011568;28;20041;-21
2022/03/11 05:11:33;;;;;;;7.57;3.65;;;;;;;-1.90;46.55;101200.97;4994200;28;20038;-21
2022/03/11 05:13:58;;;;;;;8.77;5.15;;;;;;;-1.84;47.83;101199.66;5011969;28;20142;-21
2022/03/11 05:16:24;;;;;;;11.63;6.57;;;;;;;-1.87;48.85;101208.59;5011920;28;20029;-20
2022/03/11 05:18:53;;;;;;;10.00;5.13;;;;;;;-2.14;48.01;101182.63;5011497;28;20033;-21
2022/03/11 05:21:19;;;;;;;8.07;4.95;;;;;;;-1.99;47.59;101213.84;5011556;28;20034;-20
2022/03/11 05:23:44;;;;;;;7.47;4.00;;;;;;;-2.05;47.25;101208.09;4993949;28;20045;-20
2022/03/11 05:26:24;;;;;;;8.68;6.10;;;;;;;-2.03;48.13;101219.28;5011516;28;20702;-22
2022/03/11 05:28:51;;;;;;;10.32;6.22;;;;;;;-1.99;48.01;101224.31;4995939;28;20033;-20
2022/03/11 05:31:17;;;;;;;10.13;5.50;;;;;;;-1.57;48.63;101211.69;5011569;28;20038;-20
2022/03/11 05:33:42;;;;;;;9.73;5.45;;;;;;;-2.05;47.05;101205.50;4977579;28;20096;-20
2022/03/11 05:36:08;;;;;;;11.18;5.88;;;;;;;-1.57;46.94;101232.63;4977724;28;20030;-21
2022/03/11 05:38:33;;;;;;;7.68;4.60;;;;;;;-1.66;45.82;101224.50;5011094;28;20391;-20
2022/03/11 05:40:58;;;;;;;10.18;5.45;;;;;;;-1.65;46.02;101226.19;4993708;28;20092;-21
2022/03/11 05:43:24;;;;;;;10.65;5.93;;;;;;;-1.65;46.50;101238.44;5011478;28;20041;-20
2022/03/11 05:45:49;;;;;;;10.85;6.65;;;;;;;-1.78;47.51;101232.41;5011138;28;20145;-21
2022/03/11 05:48:15;;;;;;;9.13;4.57;;;;;;;-1.91;46.52;101220.19;5010922;28;20033;-23
2022/03/11 05:50:40;;;;;;;10.35;5.28;;;;;;;-1.46;45.33;101235.31;5009644;28;20505;-21
2022/03/11 05:53:06;;;;;;;10.48;4.97;;;;;;;-1.58;45.87;101242.25;4993621;28;20581;-21
2022/03/11 05:55:31;;;;;;;9.07;4.72;;;;;;;-1.82;45.33;101229.16;5010546;28;20030;-21
2022/03/11 05:57:57;;;;;;;13.30;5.45;;;;;;;-1.48;46.92;101226.72;4993706;28;20124;-21
2022/03/11 06:00:22;;;;;;;13.05;6.25;;;;;;;-1.17;46.39;101229.72;5010841;28;20034;-21
2022/03/11 06:02:48;;;;;;;11.27;6.15;;;;;;;-0.67;45.36;101236.38;4993039;28;20559;-21
2022/03/11 06:05:13;;;;;;;9.80;6.15;;;;;;;-0.47;43.23;101245.34;5010712;28;20033;-21
2022/03/11 06:07:39;;;;;;;8.88;5.35;;;;;;;-0.78;44.24;101244.19;5010849;28;20041;-22
2022/03/11 06:10:05;;;;;;;10.38;5.50;;;;;;;-0.68;44.84;101246.97;4976731;28;20033;-21
2022/03/11 06:12:30;;;;;;;10.23;4.72;;;;;;;-0.71;45.74;101232.31;4992838;28;20643;-21
2022/03/11 06:14:57;;;;;;;9.13;4.97;;;;;;;-0.84;45.90;101256.00;4993416;28;20498;-21
2022/03/11 06:17:22;;;;;;;10.10;5.25;;;;;;;-0.95;45.54;101245.47;5010082;28;20454;-21
2022/03/11 06:19:48;;;;;;;9.52;5.03;;;;;;;-0.99;45.39;101267.59;4993156;28;20030;-21
2022/03/11 06:22:13;;;;;;;11.63;6.15;;;;;;;-0.82;46.05;101267.19;5010505;28;20041;-20
2022/03/11 06:24:39;;;;;;;27.58;13.30;;;;;;;-1.11;45.48;101266.72;4976552;28;20513;-21
2022/03/11 06:27:04;;;;;;;14.00;6.93;;;;;;;-1.43;44.40;101259.47;5010078;28;20115;-21
2022/03/11 06:29:30;;;;;;;9.65;4.65;;;;;;;-1.33;42.67;101267.47;4993113;28;20091;-20
2022/03/11 06:31:55;;;;;;;10.15;5.53;;;;;;;-1.16;42.53;101263.63;4992840;28;20044;-21
2022/03/11 06:34:20;;;;;;;14.73;8.77;;;;;;;-1.23;42.25;101278.97;5010156;28;20457;-22
2022/03/11 06:36:46;;;;;;;16.35;9.18;;;;;;;-1.29;41.55;101276.78;4992557;28;20056;-21
2022/03/11 06:39:13;;;;;;;13.30;7.43;;;;;;;-1.17;41.23;101267.19;5010158;28;20041;-21
2022/03/11 06:41:40;;;;;;;12.80;6.85;;;;;;;-0.74;41.98;101273.63;5010319;28;20416;-20
2022/03/11 06:44:06;;;;;;;12.18;6.78;;;;;;;-0.67;42.18;101280.09;5010469;28;20030;-21
2022/03/11 06:46:31;;;;;;;14.10;7.03;;;;;;;-0.75;42.08;101277.22;5010467;28;20040;-21
2022/03/11 06:48:57;;;;;;;11.60;5.60;;;;;;;-1.06;42.44;101284.72;5009717;28;20033;-21
2022/03/11 06:51:22;;;;;;;12.65;6.55;;;;;;;-1.41;42.43;101269.81;5010331;28;20044;-20
2022/03/11 06:53:48;;;;;;;18.65;7.38;;;;;;;-1.27;41.98;101293.22;5008621;28;20033;-21
2022/03/11 06:56:13;;;;;;;20.15;8.13;;;;;;;-1.22;41.61;101280.63;4992137;28;20034;-21
2022/03/11 06:58:39;;;;;;;10.82;5.13;;;;;;;-1.37;41.85;101286.94;4992410;28;20029;-21
2022/03/11 07:01:04;;;;;;;13.10;6.50;;;;;;;-1.39;41.83;101281.00;5009471;28;20445;-21
2022/03/11 07:03:30;;;;;;;20.13;8.70;;;;;;;-1.05;41.94;101281.97;4992185;28;20034;-20
2022/03/11 07:05:56;;;;;;;19.15;8.98;;;;;;;-1.27;41.96;101282.75;5009585;28;20038;-21
2022/03/11 07:08:21;;;;;;;23.77;9.43;;;;;;;-1.45;42.11;101266.59;5009536;28;20147;-21
2022/03/11 07:10:47;;;;;;;21.98;9.35;;;;;;;-1.11;41.75;101269.34;4975807;28;20041;-21
2022/03/11 07:13:12;;;;;;;18.77;8.05;;;;;;;-0.69;41.89;101282.81;4991553;28;20430;-21
2022/03/11 07:15:38;;;;;;;11.70;5.15;;;;;;;-1.17;41.52;101279.44;5009448;28;20045;-21
2022/03/11 07:18:03;;;;;;;8.98;4.90;;;;;;;-1.19;41.20;101268.25;5009280;28;20411;-21
2022/03/11 07:20:29;;;;;;;9.23;4.40;;;;;;;-1.22;40.59;101270.16;5009347;28;20034;-20
2022/03/11 07:22:54;;;;;;;9.07;4.65;;;;;;;-1.09;40.55;101282.31;4991306;28;20465;-21
2022/03/11 07:25:20;;;;;;;11.77;6.18;;;;;;;-1.17;40.96;101271.59;5009278;28;20069;-21
2022/03/11 07:27:45;;;;;;;11.23;5.60;;;;;;;-1.03;42.16;101274.84;4991424;28;20030;-21
2022/03/11 07:30:12;;;;;;;7.55;4.00;;;;;;;-1.22;41.32;101233.50;5008953;28;20038;-21
2022/03/11 07:32:40;;;;;;;10.02;4.07;;;;;;;-1.46;40.69;101270.16;4991693;28;20077;-21
2022/03/11 07:35:08;;;;;;;13.77;6.30;;;;;;;-1.03;41.42;101280.09;4975086;28;20084;-21
2022/03/11 07:37:35;;;;;;;10.73;5.72;;;;;;;-1.02;40.75;101279.16;4991430;28;20030;-20
2022/03/11 07:40:02;;;;;;;14.98;7.95;;;;;;;-0.57;40.86;101283.69;4991653;28;20037;-21
2022/03/11 07:42:28;;;;;;;13.20;7.10;;;;;;;-0.37;40.96;101281.31;5009450;28;20784;-21
2022/03/11 07:44:53;;;;;;;16.77;7.05;;;;;;;0.11;39.52;101291.56;4991102;28;20043;-21
2022/03/11 07:47:19;;;;;;;12.38;6.40;;;;;;;0.13;40.12;101273.91;4991336;28;20473;-20
2022/03/11 07:49:44;;;;;;;8.27;5.10;;;;;;;0.32;39.81;101286.41;5008853;28;20383;-21
2022/03/11 07:52:15;;;;;;;11.32;5.13;;;;;;;0.70;40.66;101277.25;5008979;28;20033;-20
2022/03/11 07:54:41;;;;;;;12.73;6.35;;;;;;;0.73;38.68;101283.06;4992347;28;20037;-21
2022/03/11 07:57:06;;;;;;;12.00;5.18;;;;;;;0.59;38.84;101289.47;5008477;28;20034;-20
2022/03/11 07:59:33;;;;;;;8.07;4.13;;;;;;;0.45;38.76;101283.63;5008630;28;20159;-21
2022/03/11 08:01:59;;;;;;;12.05;5.82;;;;;;;0.24;38.19;101287.00;5008524;28;20506;-20
2022/03/11 08:04:25;;;;;;;20.08;9.00;;;;;;;0.59;39.00;101264.97;5008537;28;20474;-20
2022/03/11 08:06:51;;;;;;;15.98;7.07;;;;;;;0.69;37.73;101278.19;4990623;28;20060;-20
2022/03/11 08:09:16;;;;;;;19.73;8.73;;;;;;;0.38;38.25;101254.44;4961882;28;20038;-21
2022/03/11 08:11:42;;;;;;;34.40;12.27;;;;;;;0.51;38.75;101283.13;5010328;28;20641;-21
2022/03/11 08:14:07;;;;;;;20.50;8.07;;;;;;;0.52;37.85;101288.28;5028078;28;20080;-20
2022/03/11 08:16:33;;;;;;;17.35;7.32;;;;;;;0.24;39.12;101281.75;5028225;28;20025;-21
2022/03/11 08:18:59;;;;;;;15.80;7.35;;;;;;;0.30;38.36;101289.13;5027993;28;20037;-21
2022/03/11 08:21:24;;;;;;;9.88;6.25;;;;;;;0.66;38.30;101271.41;5009986;28;20033;-21
2022/03/11 08:23:50;;;;;;;18.23;7.13;;;;;;;1.12;38.01;101254.47;5028203;28;20107;-20
2022/03/11 08:26:17;;;;;;;17.88;6.55;;;;;;;1.00;36.14;101268.63;5028536;28;20033;-21
2022/03/11 08:28:43;;;;;;;13.90;5.55;;;;;;;1.09;37.85;101272.31;5028293;28;20037;-22
2022/03/11 08:31:08;;;;;;;16.90;5.35;;;;;;;0.91;37.70;101264.16;5028209;28;20076;-21
2022/03/11 08:33:37;;;;;;;14.93;7.70;;;;;;;1.20;38.03;101278.31;5010405;28;20041;-21
2022/03/11 08:36:02;;;;;;;;;;;;;;;1.80;37.44;101277.69;5028323;28;20543;-21
2022/03/11 08:38:27;;;;;;;8.02;3.70;;;;;;;2.03;36.80;101272.25;5027583;28;19917;-22
2022/03/11 08:40:53;;;;;;;9.35;4.55;;;;;;;2.35;37.17;101274.66;5009850;28;20425;-20
2022/03/11 08:43:19;;;;;;;8.82;4.13;;;;;;;2.63;35.46;101270.41;5027833;28;20056;-20
2022/03/11 08:45:44;;;;;;;9.82;4.75;;;;;;;2.16;34.71;101254.41;5010182;28;20033;-20
2022/03/11 08:48:10;;;;;;;10.32;4.72;;;;;;;2.01;35.66;101265.31;5010447;28;20030;-21
2022/03/11 08:50:35;;;;;;;25.08;10.20;;;;;;;2.63;35.32;101264.31;5027484;28;20045;-20
2022/03/11 08:53:01;;;;;;;9.13;4.80;;;;;;;2.93;33.04;101271.28;4993586;28;20040;-20
2022/03/11 08:55:26;;;;;;;15.25;6.15;;;;;;;2.84;34.10;101264.19;5009910;28;20038;-20
2022/03/11 08:57:52;;;;;;;12.23;5.65;;;;;;;2.36;32.85;101250.84;4993668;28;20036;-21
2022/03/11 09:00:22;;;;;;;14.68;5.80;;;;;;;2.28;33.02;101263.84;5009694;28;20436;-20
2022/03/11 09:02:47;;;;;;;11.98;5.32;;;;;;;2.89;33.65;101246.19;5027419;28;20083;-22
2022/03/11 09:05:15;;;;;;;10.32;4.80;;;;;;;2.95;33.84;101261.44;5009460;28;20092;-20
2022/03/11 09:07:40;;;;;;;7.45;3.80;;;;;;;3.32;35.54;101265.94;4993854;28;20057;-21
2022/03/11 09:10:09;;;;;;;10.52;5.05;;;;;;;3.20;33.27;101247.66;5027451;28;20454;-20
2022/03/11 09:12:36;;;;;;;8.00;4.07;;;;;;;3.73;35.36;101262.06;5027092;28;20451;-21
2022/03/11 09:15:01;;;;;;;8.10;3.95;;;;;;;4.37;32.97;101259.53;4993286;28;20523;-21
2022/03/11 09:17:27;;;;;;;10.32;5.45;;;;;;;4.56;33.04;101242.75;5027251;28;20033;-20
2022/03/11 09:19:54;;;;;;;18.60;8.48;;;;;;;3.82;36.08;101263.88;5009213;28;20090;-21
2022/03/11 09:22:20;;;;;;;9.77;5.55;;;;;;;2.32;37.38;101259.97;5027585;28;20048;-20
2022/03/11 09:24:45;;;;;;;8.95;5.55;;;;;;;1.72;39.30;101253.84;5027344;28;20108;-21
2022/03/11 09:27:16;;;;;;;12.75;5.70;;;;;;;1.87;39.79;101241.16;5009282;28;20033;-22
2022/03/11 09:29:42;;;;;;;11.32;6.00;;;;;;;1.39;40.13;101259.22;5027575;28;20068;-21
2022/03/11 09:32:07;;;;;;;21.17;8.75;;;;;;;2.00;39.52;101258.41;5009330;28;20030;-21
2022/03/11 09:34:34;;;;;;;15.20;6.68;;;;;;;2.31;36.42;101253.06;5009815;28;20531;-21
2022/03/11 09:36:59;;;;;;;10.70;5.25;;;;;;;1.71;37.53;101236.41;5009454;28;20037;-21
2022/03/11 09:39:25;;;;;;;10.70;5.13;;;;;;;1.73;38.46;101239.72;5027592;28;20052;-20
2022/03/11 09:41:51;;;;;;;8.55;4.40;;;;;;;2.29;37.67;101247.09;5009696;28;20041;-21
2022/03/11 09:44:17;;;;;;;14.05;6.53;;;;;;;2.30;37.56;101248.75;5027115;28;20033;-20
2022/03/11 09:46:43;;;;;;;14.40;5.82;;;;;;;2.54;36.85;101251.00;5009199;28;20414;-22
2022/03/11 09:49:10;;;;;;;13.40;6.25;;;;;;;2.54;39.91;101242.28;5009049;28;20030;-21
2022/03/11 09:51:36;;;;;;;12.27;6.65;;;;;;;2.93;37.61;101247.56;5027685;28;20060;-20
2022/03/11 09:54:01;;;;;;;11.38;5.30;;;;;;;2.94;38.34;101231.63;4996527;28;20033;-21
2022/03/11 09:56:27;;;;;;;10.43;5.38;;;;;;;3.06;36.85;101240.19;5031137;28;20374;-20
2022/03/11 09:58:56;;;;;;;9.50;4.80;;;;;;;2.64;37.69;101224.69;5012494;28;20111;-21
2022/03/11 10:01:21;;;;;;;8.55;4.72;;;;;;;3.28;36.89;101243.47;5012642;28;20112;-20
2022/03/11 10:03:47;;;;;;;9.25;5.13;;;;;;;3.56;36.24;101247.84;4996639;28;20133;-21
2022/03/11 10:06:12;;;;;;;18.50;8.73;;;;;;;4.07;37.30;101244.88;4980187;28;20402;-20
2022/03/11 10:08:44;;;;;;;12.30;5.55;;;;;;;4.65;34.02;101238.34;4996326;28;20036;-20
2022/03/11 10:11:26;;;;;;;16.27;8.70;;;;;;;4.85;35.12;101233.75;5012355;28;20033;-21
2022/03/11 10:13:52;;;;;;;12.43;6.40;;;;;;;4.54;33.96;101199.78;5009315;28;20133;-20
2022/03/11 10:16:25;;;;;;;11.57;6.40;;;;;;;4.21;35.12;101229.34;5010795;28;20030;-22
2022/03/11 10:18:57;;;;;;;10.00;5.22;;;;;;;3.77;33.94;101213.31;4993087;28;20121;-20
2022/03/11 10:21:29;;;;;;;26.73;13.55;;;;;;;3.73;38.48;101217.22;5009188;28;20073;-21
2022/03/11 10:23:54;;;;;;;11.38;5.43;;;;;;;3.24;36.15;101202.56;5010782;28;20041;-22
2022/03/11 10:26:40;;;;;;;12.27;6.38;;;;;;;3.00;37.74;101211.75;4992766;28;20434;-21
2022/03/11 10:29:07;;;;;;;16.52;8.75;;;;;;;3.27;36.75;101204.91;4992948;28;20030;-20
2022/03/11 10:31:36;;;;;;;24.63;11.48;;;;;;;3.79;37.44;101218.47;5010541;28;20026;-21
2022/03/11 10:34:18;;;;;;;14.25;7.10;;;;;;;3.58;35.24;101203.69;5010468;28;20116;-20
2022/03/11 10:37:14;;;;;;;15.65;8.05;;;;;;;3.86;35.69;101219.53;5010337;28;20026;-20
2022/03/11 10:39:41;;;;;;;7.22;4.28;;;;;;;3.13;34.87;101209.66;5009114;28;20473;-21
2022/03/11 10:42:20;;;;;;;9.73;4.88;;;;;;;3.43;36.19;101199.84;5008754;28;20251;-20
2022/03/11 10:44:53;;;;;;;;;;;;;;;4.38;37.29;101206.56;5010319;28;20103;-21
2022/03/11 10:47:20;;;;;;;11.57;6.15;;;;;;;3.96;37.62;101196.56;5008384;28;19913;-21
2022/03/11 10:49:54;;;;;;;22.60;12.32;;;;;;;2.98;38.78;101189.97;5008754;28;20089;-20
2022/03/11 10:52:30;;;;;;;14.43;7.90;;;;;;;3.35;39.83;101191.81;5009907;28;20061;-21
2022/03/11 10:54:56;;;;;;;9.93;5.63;;;;;;;3.79;36.85;101192.06;5009649;28;20041;-21
2022/03/11 10:57:32;;;;;;;14.68;8.27;;;;;;;4.61;37.04;101179.69;5008432;28;20034;-20
2022/03/11 11:00:08;;;;;;;13.57;7.32;;;;;;;4.88;36.61;101172.63;4993322;28;20500;-20
2022/03/11 11:02:33;;;;;;;18.02;8.13;;;;;;;5.40;36.35;101181.38;5008655;28;20037;-21
2022/03/11 11:04:59;;;;;;;10.70;5.40;;;;;;;5.03;36.51;101173.75;4990989;28;20025;-21
2022/03/11 11:07:24;;;;;;;10.63;6.20;;;;;;;4.75;37.40;101165.94;5008397;28;20052;-21
2022/03/11 11:09:49;;;;;;;13.48;8.18;;;;;;;5.03;37.79;101179.03;5009614;28;20445;-20
2022/03/11 11:12:15;;;;;;;11.07;7.68;;;;;;;5.27;36.50;101172.22;5010752;28;20030;-20
2022/03/11 11:14:41;;;;;;;10.00;4.90;;;;;;;5.69;31.89;101168.78;5011822;28;20037;-20
2022/03/11 11:17:06;;;;;;;10.48;6.03;;;;;;;5.11;36.45;101160.56;5011250;28;20215;-20